Thursday, October 23, 2014
04:39 UTC
  |  Log In   |  Register Free
Airport Search:

Lonesome Pine Airport
(KLNP)

Lonesome Pine Airport Diagram
No Airport Diagram Available

FAA data valid effective September 18, 2014 - November 13, 2014 (unless otherwise noted).

 
 
 
 
 
 
 
 
 
 
 
 
 
 

Current Aviation Weather for Lonesome Pine Airport (KLNP)

The most recent METAR observation for KLNP was updated at: 0412
METAR Summary (Translated METAR)
KLNP
230355Z AUTO 34004KT 10SM BKN004 OVC017 06/06 A3021 RMK AO2
KVJI
230355Z AUTO 00000KT 10SM OVC019 08/06 A3019 RMK AO2 T00820055
(29.9 nm SE from KLNP)
KTRI
230353Z 29003KT 10SM OVC033 09/05 A3020 RMK AO2 SLP218 T00890050
(31.3 nm SE from KLNP)
TAF Summary (Translated TAF)
KTRI
(31.3 nm SE from KLNP)
221736Z 2218/2318 35008KT P6SM BKN030 TEMPO 2218/2222 OVC025 FM222300 32003KT P6SM OVC025 FM231200 00000KT P6SM SCT020 FM231400 30004KT P6SM SKC
  Airport Weather Conditions for KLNP

 Current Weather at LNP
43° F
Overcast
North winds at 4.6 mph
LNP NOAA Radar

Pressure: 30.21 in
Humidity: 100%
Wind: North at 4.6 MPH (4 KT)
Dew Point: 42.8°F
Visibility: 10.00 mi


Airport Weather Forecast for KLNP

Translated METAR and TAF for KLNP
Translated METAR for KLNP (0434 UTC 23 October 2014)
found at http://aviationweather.gov/adds/metars/
 
METAR text: KLNP 230415Z AUTO 35005KT 10SM BKN006 OVC011 06/06 A3020 RMK AO2
Conditions at: KLNP (WISE/LONESOME PI, VA, US) observed 0415 UTC 23 October 2014
Temperature: 6.0°C (43°F)
Dewpoint: 6.0°C (43°F) [RH = 100%]
Pressure (altimeter): 30.20 inches Hg (1022.8 mb)
Winds: from the N (350 degrees) at 6 MPH (5 knots; 2.6 m/s)
Visibility: 10 or more miles (16+ km)
Ceiling: 600 feet AGL
Clouds: broken clouds at 600 feet AGL
overcast cloud deck at 1100 feet AGL
Weather: automated observation with no human augmentation;
there may or may not be significant weather present at this time
Translated TAF for KLNP

There is no translated TAF available for this airport

Find All Airport Services Find A Hotel Find A Rental Car Find A Golf Course Find A Restaurant $100 Hamburger



FBO's on the Field
FBO Company Facility Photos Services Transportation Aviation Fuel Prices: Prices include tax
Catering Weather Repair Courtesy Rental Type 100LL JetA JetA+ MOGAS 8087
 
Lonesome Pine Airport

This FBO has not yet been rated
FS:Shell
Last Updated: Sep-24
Login to update fuel prices
SS:
Contact Lonesome Pine AirportMore FBO Information
 
Add another FBO Facility Photos Catering Weather Repair Courtesy Rental Type 100LL JetA JetA+ MOGAS 8087
Services Transportation Aviation Fuel Prices: Prices include tax


model-print
model-print
model-print
model-print